Terminal Aerodrome Forecast
Issued by NWS

Home | Current Version | Previous Version | Text Only | Print | Product List | Glossary On
Versions: 1 2 3 4 5 6 7 8 9 10 11 12 13 14 15 16
000
FTUS46 KSTO 252320
TAFSMF
TAF
KSMF 252320Z 2600/2624 29005KT P6SM FEW035 SCT250
     FM260300 18005KT P6SM SCT080 BKN150 OVC250=

USA.gov is the U.S. government's official web portal to all federal, state and local government web resources and services.